Time;durP1;ratioP1;P1;durP2;ratioP2;P2;SDS_P1;SDS_P2;PMS_P1;PMS_P2;Temp;Humidity;BMP_temperature;BMP_pressure;BME280_temperature;BME280_humidity;BME280_pressure;Samples;Min_cycle;Max_cycle;Signal;HPM_P1;HPM_P2
2022/01/14 00:00:30;;;;;;;;;90.00;70.33;;;;;;;;4974481;28;45473;-81
2022/01/14 00:02:55;;;;;;;;;84.00;68.00;;;;;;;;4992882;28;45320;-81
2022/01/14 00:05:20;;;;;;;;;85.33;68.00;;;;;;;;4973981;28;47512;-81
2022/01/14 00:07:46;;;;;;;;;85.67;67.00;;;;;;;;4991804;28;45447;-81
2022/01/14 00:10:11;;;;;;;;;85.00;67.33;;;;;;;;4992478;28;45352;-81
2022/01/14 00:12:40;;;;;;;;;82.33;65.00;;;;;;;;4991876;28;45688;-81
2022/01/14 00:15:24;;;;;;;;;85.25;67.25;;;;;;;;4992513;28;45737;-81
2022/01/14 00:17:49;;;;;;;;;86.50;66.75;;;;;;;;4992335;28;45792;-81
2022/01/14 00:20:14;;;;;;;;;84.00;66.00;;;;;;;;4991565;28;45676;-81
2022/01/14 00:22:39;;;;;;;;;87.33;68.67;;;;;;;;4973885;28;45408;-81
2022/01/14 00:33:08;;;;;;;;;77.25;62.50;;;;;;;;4992016;28;45481;-80
2022/01/14 00:35:34;;;;;;;;;78.50;62.25;;;;;;;;4972955;28;46247;-80
2022/01/14 00:37:59;;;;;;;;;83.50;66.50;;;;;;;;4992080;28;45506;-81
2022/01/14 00:40:25;;;;;;;;;91.33;71.67;;;;;;;;4974038;28;45785;-81
2022/01/14 00:42:50;;;;;;;;;83.00;67.00;;;;;;;;4991630;28;45861;-81
2022/01/14 00:45:16;;;;;;;;;81.25;64.00;;;;;;;;4973538;28;46110;-80
2022/01/14 00:47:41;;;;;;;;;85.50;67.50;;;;;;;;4973792;28;45787;-81
2022/01/14 00:50:08;;;;;;;;;81.00;63.75;;;;;;;;4973833;28;45853;-81
2022/01/14 00:52:34;;;;;;;;;81.50;64.00;;;;;;;;4991087;28;45895;-81
2022/01/14 00:54:59;;;;;;;;;81.75;63.50;;;;;;;;4974105;28;47278;-80
2022/01/14 00:59:14;;;;;;;;;78.00;61.67;;;;;;;;4989704;28;45748;-81
2022/01/14 01:00:12;;;;;;;;;79.25;62.00;;;;;;;;4991348;28;45538;-81
2022/01/14 01:02:37;;;;;;;;;80.75;64.75;;;;;;;;4991387;28;45997;-81
2022/01/14 01:05:03;;;;;;;;;79.33;62.00;;;;;;;;4991335;28;46031;-81
2022/01/14 01:07:28;;;;;;;;;69.50;58.25;;;;;;;;4990927;28;45467;-81
2022/01/14 01:09:53;;;;;;;;;74.00;59.00;;;;;;;;4991759;28;45471;-81
2022/01/14 01:15:15;;;;;;;;;71.25;57.75;;;;;;;;4981652;28;46153;-81
2022/01/14 01:17:41;;;;;;;;;66.00;54.25;;;;;;;;4991097;28;45476;-81
2022/01/14 01:20:15;;;;;;;;;77.75;61.00;;;;;;;;4973250;28;45421;-81
2022/01/14 01:22:41;;;;;;;;;76.50;61.00;;;;;;;;4973183;28;45512;-81
2022/01/14 01:25:08;;;;;;;;;77.33;59.00;;;;;;;;4991086;28;45654;-81
2022/01/14 01:27:38;;;;;;;;;76.00;59.50;;;;;;;;4972891;28;45394;-81
2022/01/14 01:30:48;;;;;;;;;76.50;61.00;;;;;;;;4973257;28;45532;-81
2022/01/14 01:33:04;;;;;;;;;78.75;62.00;;;;;;;;4990657;28;45432;-81
2022/01/14 01:35:32;;;;;;;;;74.25;59.75;;;;;;;;4972350;28;46332;-80
2022/01/14 01:37:57;;;;;;;;;73.50;59.75;;;;;;;;4973635;28;45392;-81
2022/01/14 01:40:23;;;;;;;;;75.33;60.00;;;;;;;;4990441;28;45484;-80
2022/01/14 01:42:48;;;;;;;;;78.00;61.25;;;;;;;;4973210;28;45576;-81
2022/01/14 01:45:20;;;;;;;;;75.75;60.75;;;;;;;;4990716;28;45782;-81
2022/01/14 01:47:49;;;;;;;;;75.75;60.50;;;;;;;;4972772;28;45512;-81
2022/01/14 01:50:15;;;;;;;;;71.75;58.25;;;;;;;;4990739;28;45456;-81
2022/01/14 01:52:40;;;;;;;;;72.25;58.50;;;;;;;;4972316;28;45571;-81
2022/01/14 01:55:06;;;;;;;;;72.00;57.00;;;;;;;;4990248;28;45468;-81
2022/01/14 01:57:32;;;;;;;;;68.25;56.00;;;;;;;;4972656;28;45391;-81
2022/01/14 01:59:57;;;;;;;;;62.75;53.00;;;;;;;;4991351;28;45342;-81
2022/01/14 02:02:22;;;;;;;;;64.33;51.67;;;;;;;;4972116;28;45702;-80
2022/01/14 02:04:47;;;;;;;;;64.33;54.00;;;;;;;;4972764;28;47311;-81
2022/01/14 02:07:13;;;;;;;;;69.33;55.00;;;;;;;;4971946;28;45604;-80
2022/01/14 02:09:38;;;;;;;;;63.00;53.00;;;;;;;;4972530;28;45429;-81
2022/01/14 02:12:09;;;;;;;;;68.33;56.67;;;;;;;;4972771;28;45533;-81
2022/01/14 02:19:29;;;;;;;;;63.25;52.75;;;;;;;;4989997;28;45357;-81
2022/01/14 02:24:56;;;;;;;;;69.25;54.25;;;;;;;;4989794;28;45448;-81
2022/01/14 02:27:20;;;;;;;;;67.75;55.50;;;;;;;;4989764;28;45565;-80
2022/01/14 02:29:45;;;;;;;;;64.33;54.00;;;;;;;;4972479;28;45570;-80
2022/01/14 02:32:10;;;;;;;;;68.75;56.50;;;;;;;;4989685;28;45399;-81
2022/01/14 02:34:36;;;;;;;;;73.00;56.67;;;;;;;;4972123;28;45991;-81
2022/01/14 02:37:02;;;;;;;;;69.75;55.75;;;;;;;;4972382;28;45331;-81
2022/01/14 02:39:27;;;;;;;;;65.75;56.00;;;;;;;;4971769;28;45447;-81
2022/01/14 02:41:53;;;;;;;;;65.67;54.67;;;;;;;;4990518;28;45297;-81
2022/01/14 02:44:24;;;;;;;;;71.00;54.33;;;;;;;;4990354;28;45830;-80
2022/01/14 02:46:55;;;;;;;;;66.50;53.75;;;;;;;;4971812;28;45844;-81
2022/01/14 02:49:22;;;;;;;;;67.00;55.25;;;;;;;;4972054;28;45456;-81
2022/01/14 02:51:47;;;;;;;;;71.25;53.50;;;;;;;;4971847;28;45355;-81
2022/01/14 02:54:16;;;;;;;;;66.67;54.33;;;;;;;;4971666;28;46414;-81
2022/01/14 02:56:46;;;;;;;;;65.25;52.25;;;;;;;;4971793;28;45535;-81
2022/01/14 02:59:12;;;;;;;;;67.50;53.25;;;;;;;;4972063;28;45727;-81
2022/01/14 03:01:38;;;;;;;;;66.75;55.25;;;;;;;;4989534;28;45352;-80
2022/01/14 03:04:04;;;;;;;;;61.50;53.50;;;;;;;;4990136;28;46785;-81
2022/01/14 03:06:30;;;;;;;;;69.25;54.50;;;;;;;;4971286;28;45711;-81
2022/01/14 03:08:56;;;;;;;;;63.25;54.00;;;;;;;;4990155;28;45850;-80
2022/01/14 03:11:34;;;;;;;;;66.50;55.00;;;;;;;;4989033;28;45434;-81
2022/01/14 03:13:59;;;;;;;;;67.50;55.50;;;;;;;;4972335;28;48107;-81
2022/01/14 03:16:25;;;;;;;;;67.75;55.25;;;;;;;;4988859;28;45511;-81
2022/01/14 03:18:53;;;;;;;;;77.50;59.00;;;;;;;;4989871;28;45405;-81
2022/01/14 03:21:33;;;;;;;;;74.50;59.50;;;;;;;;4992252;28;45758;-81
2022/01/14 03:24:17;;;;;;;;;69.75;55.50;;;;;;;;4992953;28;45406;-81
2022/01/14 03:26:43;;;;;;;;;61.00;51.25;;;;;;;;4992972;28;45767;-80
2022/01/14 03:29:08;;;;;;;;;64.50;52.75;;;;;;;;4993016;28;45301;-80
2022/01/14 03:31:34;;;;;;;;;65.67;55.00;;;;;;;;4991654;28;46018;-81
2022/01/14 03:33:59;;;;;;;;;64.00;52.67;;;;;;;;4992965;28;46276;-81
2022/01/14 03:36:25;;;;;;;;;66.33;55.33;;;;;;;;4992444;28;45405;-80
2022/01/14 03:38:50;;;;;;;;;65.75;52.75;;;;;;;;4974477;28;45446;-81
2022/01/14 03:41:15;;;;;;;;;63.67;53.00;;;;;;;;4993043;28;45457;-81
2022/01/14 03:43:41;;;;;;;;;71.00;56.00;;;;;;;;4992726;28;45689;-80
2022/01/14 03:46:07;;;;;;;;;56.75;48.75;;;;;;;;4974613;28;45413;-81
2022/01/14 03:48:32;;;;;;;;;59.00;48.33;;;;;;;;4992768;28;45378;-80
2022/01/14 03:50:57;;;;;;;;;63.50;52.00;;;;;;;;4992449;28;45391;-81
2022/01/14 03:53:23;;;;;;;;;65.33;52.00;;;;;;;;4991787;28;45419;-80
2022/01/14 03:55:48;;;;;;;;;56.67;48.00;;;;;;;;4992787;28;45748;-80
2022/01/14 03:58:13;;;;;;;;;68.00;56.33;;;;;;;;4992515;28;45524;-81
2022/01/14 04:00:38;;;;;;;;;69.00;53.67;;;;;;;;4974471;28;45602;-80
2022/01/14 04:03:05;;;;;;;;;63.67;52.33;;;;;;;;4992283;28;46278;-81
2022/01/14 04:05:30;;;;;;;;;67.00;55.75;;;;;;;;4974044;28;45957;-81
2022/01/14 04:07:56;;;;;;;;;65.00;52.33;;;;;;;;4992607;28;45513;-81
2022/01/14 04:10:22;;;;;;;;;68.00;53.33;;;;;;;;4991528;28;45936;-80
2022/01/14 04:12:54;;;;;;;;;63.00;52.75;;;;;;;;4992067;28;45477;-81
2022/01/14 04:15:38;;;;;;;;;60.75;52.25;;;;;;;;4974250;28;45896;-81
2022/01/14 04:18:11;;;;;;;;;63.00;48.00;;;;;;;;4992663;28;45715;-80
2022/01/14 04:20:37;;;;;;;;;63.75;53.25;;;;;;;;4973795;28;45398;-80
2022/01/14 04:23:04;;;;;;;;;62.00;51.25;;;;;;;;4991760;28;46546;-80
2022/01/14 04:25:30;;;;;;;;;64.75;52.00;;;;;;;;4991995;28;45320;-80
2022/01/14 04:27:55;;;;;;;;;66.33;53.00;;;;;;;;4992497;28;45373;-80
2022/01/14 04:30:20;;;;;;;;;60.25;51.50;;;;;;;;4991159;28;45601;-81
2022/01/14 04:32:46;;;;;;;;;61.33;51.33;;;;;;;;4991561;28;46333;-80
2022/01/14 04:35:12;;;;;;;;;61.00;48.25;;;;;;;;4991617;28;45407;-81
2022/01/14 04:37:37;;;;;;;;;63.25;51.00;;;;;;;;4991590;28;45941;-81
2022/01/14 04:40:03;;;;;;;;;58.00;49.00;;;;;;;;4974144;28;45644;-81
2022/01/14 04:42:29;;;;;;;;;60.50;49.25;;;;;;;;4973661;28;48457;-81
2022/01/14 04:44:56;;;;;;;;;51.75;45.75;;;;;;;;4974128;28;45750;-81
2022/01/14 04:50:05;;;;;;;;;60.25;48.50;;;;;;;;4991904;28;45365;-81
2022/01/14 04:52:30;;;;;;;;;60.00;48.00;;;;;;;;4990390;28;46654;-80
2022/01/14 04:54:56;;;;;;;;;56.50;47.75;;;;;;;;4991877;28;45384;-80
2022/01/14 04:57:21;;;;;;;;;54.75;47.00;;;;;;;;4991371;28;45386;-81
2022/01/14 04:59:47;;;;;;;;;41.50;38.25;;;;;;;;4991776;28;45542;-81
2022/01/14 05:02:13;;;;;;;;;64.25;52.00;;;;;;;;4991055;28;45450;-81
2022/01/14 05:04:39;;;;;;;;;60.25;50.75;;;;;;;;4991404;28;45420;-80
2022/01/14 05:07:05;;;;;;;;;61.50;51.50;;;;;;;;4973712;28;45384;-80
2022/01/14 05:09:37;;;;;;;;;63.75;51.75;;;;;;;;4972948;28;45379;-81
2022/01/14 05:12:09;;;;;;;;;63.75;51.50;;;;;;;;4973713;28;47363;-81
2022/01/14 05:14:34;;;;;;;;;60.00;49.75;;;;;;;;4991046;28;45781;-81
2022/01/14 05:17:00;;;;;;;;;65.67;51.67;;;;;;;;4973649;28;45713;-81
2022/01/14 05:19:25;;;;;;;;;64.00;52.25;;;;;;;;4973397;28;45642;-80
2022/01/14 05:21:50;;;;;;;;;55.33;47.33;;;;;;;;4973230;28;47353;-80
2022/01/14 05:24:15;;;;;;;;;46.33;41.00;;;;;;;;4972808;28;45649;-81
2022/01/14 05:26:40;;;;;;;;;63.00;53.00;;;;;;;;4973290;28;45604;-81
2022/01/14 05:29:06;;;;;;;;;69.00;54.67;;;;;;;;4991458;28;45328;-81
2022/01/14 05:31:48;;;;;;;;;61.67;50.00;;;;;;;;4990036;28;45416;-81
2022/01/14 05:34:13;;;;;;;;;62.25;51.25;;;;;;;;4991219;28;45388;-81
2022/01/14 05:36:39;;;;;;;;;62.33;49.33;;;;;;;;4972786;28;45480;-81
2022/01/14 05:39:04;;;;;;;;;53.75;48.25;;;;;;;;4990557;28;45575;-81
2022/01/14 05:41:30;;;;;;;;;63.25;48.25;;;;;;;;4972730;28;48856;-81
2022/01/14 05:43:55;;;;;;;;;60.67;49.67;;;;;;;;4990943;28;45453;-81
2022/01/14 05:46:20;;;;;;;;;60.00;48.00;;;;;;;;4972380;28;46026;-80
2022/01/14 05:48:45;;;;;;;;;51.33;45.33;;;;;;;;4973222;28;45464;-81
2022/01/14 05:51:11;;;;;;;;;58.00;48.33;;;;;;;;4990234;28;45436;-81
2022/01/14 05:53:36;;;;;;;;;57.00;48.00;;;;;;;;4989961;28;45406;-81
2022/01/14 05:56:01;;;;;;;;;57.00;46.67;;;;;;;;4991871;28;45553;-80
2022/01/14 05:58:26;;;;;;;;;57.33;47.00;;;;;;;;4990554;28;45362;-81
2022/01/14 06:00:51;;;;;;;;;52.33;44.67;;;;;;;;4972714;28;46629;-81
2022/01/14 06:03:17;;;;;;;;;48.33;44.00;;;;;;;;4972737;28;45869;-81
2022/01/14 06:05:43;;;;;;;;;57.00;46.25;;;;;;;;4972564;28;45338;-81
2022/01/14 06:08:08;;;;;;;;;54.67;47.33;;;;;;;;4972528;28;45488;-81
2022/01/14 06:10:33;;;;;;;;;60.33;49.33;;;;;;;;4972406;28;46347;-81
2022/01/14 06:12:58;;;;;;;;;69.33;51.67;;;;;;;;4990613;28;45448;-81
2022/01/14 06:15:24;;;;;;;;;60.67;49.00;;;;;;;;4989994;28;45538;-81
2022/01/14 06:17:49;;;;;;;;;62.33;52.67;;;;;;;;4972748;28;45591;-81
2022/01/14 06:20:14;;;;;;;;;63.67;51.67;;;;;;;;4990281;28;46163;-81
2022/01/14 06:22:40;;;;;;;;;68.33;54.33;;;;;;;;4971996;28;45550;-81
2022/01/14 06:25:05;;;;;;;;;64.25;49.50;;;;;;;;4990733;28;45906;-81
2022/01/14 06:27:32;;;;;;;;;66.75;53.50;;;;;;;;4990261;28;45448;-81
2022/01/14 06:29:58;;;;;;;;;71.33;57.67;;;;;;;;4972234;28;47526;-81
2022/01/14 06:32:23;;;;;;;;;67.00;55.33;;;;;;;;4988889;28;45549;-81
2022/01/14 06:34:48;;;;;;;;;69.67;57.00;;;;;;;;4989683;28;46000;-81
2022/01/14 06:37:13;;;;;;;;;71.00;55.33;;;;;;;;4987462;28;45512;-81
2022/01/14 06:39:38;;;;;;;;;69.33;55.33;;;;;;;;4988595;28;46323;-81
2022/01/14 06:42:04;;;;;;;;;75.67;58.33;;;;;;;;4971082;28;45513;-81
2022/01/14 06:44:29;;;;;;;;;84.00;67.50;;;;;;;;4988324;28;45463;-81
2022/01/14 06:46:54;;;;;;;;;86.33;68.67;;;;;;;;4971250;28;45597;-81
2022/01/14 06:49:19;;;;;;;;;92.33;73.33;;;;;;;;4988313;28;46487;-81
2022/01/14 06:51:45;;;;;;;;;87.33;66.67;;;;;;;;4987869;28;45495;-81
2022/01/14 06:54:10;;;;;;;;;88.33;70.00;;;;;;;;4988730;28;45341;-80
2022/01/14 06:56:38;;;;;;;;;92.33;71.00;;;;;;;;4974546;28;45517;-81
2022/01/14 06:59:03;;;;;;;;;106.00;94.75;;;;;;;;4992097;28;47139;-80
2022/01/14 07:01:28;;;;;;;;;101.33;82.67;;;;;;;;4992268;28;45463;-81
2022/01/14 07:03:53;;;;;;;;;106.00;90.67;;;;;;;;4975100;28;45525;-81
2022/01/14 07:06:19;;;;;;;;;104.33;89.33;;;;;;;;4991427;28;45430;-81
2022/01/14 07:08:44;;;;;;;;;101.67;82.33;;;;;;;;4992185;28;45491;-81
2022/01/14 07:11:11;;;;;;;;;101.00;81.00;;;;;;;;4992720;28;45580;-81
2022/01/14 07:13:36;;;;;;;;;103.75;87.50;;;;;;;;4974204;28;45576;-81
2022/01/14 07:16:01;;;;;;;;;101.00;81.33;;;;;;;;4993017;28;45631;-81
2022/01/14 07:18:26;;;;;;;;;92.00;71.33;;;;;;;;4991811;28;48080;-81
2022/01/14 07:20:51;;;;;;;;;92.67;71.67;;;;;;;;4991709;28;45484;-81
2022/01/14 07:23:17;;;;;;;;;92.00;73.67;;;;;;;;4974138;28;45478;-81
2022/01/14 07:25:42;;;;;;;;;94.33;74.33;;;;;;;;4974413;28;45635;-81
2022/01/14 07:28:07;;;;;;;;;86.67;69.33;;;;;;;;4973848;28;47354;-81
2022/01/14 07:30:32;;;;;;;;;84.67;68.67;;;;;;;;4992004;28;45489;-81
2022/01/14 07:32:58;;;;;;;;;83.75;67.00;;;;;;;;4953378;28;1142007;-81
2022/01/14 07:35:23;;;;;;;;;74.25;59.25;;;;;;;;4992036;28;45486;-80
2022/01/14 07:37:48;;;;;;;;;84.33;66.67;;;;;;;;4992812;28;45432;-81
2022/01/14 07:40:14;;;;;;;;;78.33;63.00;;;;;;;;4992726;28;45593;-81
2022/01/14 07:42:39;;;;;;;;;74.67;62.00;;;;;;;;4974730;28;45505;-80
2022/01/14 07:45:04;;;;;;;;;77.67;60.33;;;;;;;;4993058;28;45466;-81
2022/01/14 07:47:30;;;;;;;;;64.25;49.50;;;;;;;;4992234;28;45704;-81
2022/01/14 07:49:55;;;;;;;;;64.75;53.50;;;;;;;;4993045;28;45645;-81
2022/01/14 07:52:20;;;;;;;;;66.00;51.00;;;;;;;;4974449;28;45378;-81
2022/01/14 07:54:46;;;;;;;;;67.00;54.67;;;;;;;;4974834;28;45607;-81
2022/01/14 07:57:11;;;;;;;;;64.00;53.33;;;;;;;;4974667;28;46148;-81
2022/01/14 07:59:37;;;;;;;;;57.75;48.50;;;;;;;;4991751;28;45408;-81
2022/01/14 08:02:03;;;;;;;;;61.00;50.50;;;;;;;;4993010;28;45481;-81
2022/01/14 08:04:28;;;;;;;;;63.50;51.25;;;;;;;;4974344;28;45504;-81
2022/01/14 08:06:57;;;;;;;;;66.00;54.50;;;;;;;;4991482;28;45573;-81
2022/01/14 08:09:23;;;;;;;;;63.75;54.25;;;;;;;;4992330;28;45819;-81
2022/01/14 08:11:48;;;;;;;;;66.75;55.25;;;;;;;;4992907;28;45507;-81
2022/01/14 08:14:13;;;;;;;;;62.00;51.00;;;;;;;;4974230;28;45708;-81
2022/01/14 08:16:39;;;;;;;;;65.00;53.00;;;;;;;;4974354;28;47366;-83
2022/01/14 08:19:05;;;;;;;;;65.00;53.25;;;;;;;;4992179;28;45431;-81
2022/01/14 08:21:30;;;;;;;;;65.25;53.25;;;;;;;;4991627;28;45773;-81
2022/01/14 08:23:55;;;;;;;;;67.50;54.25;;;;;;;;4974324;28;45512;-81
2022/01/14 08:26:21;;;;;;;;;62.33;52.00;;;;;;;;4973888;28;46519;-83
2022/01/14 08:28:46;;;;;;;;;60.67;48.33;;;;;;;;4991640;28;45466;-83
2022/01/14 08:31:11;;;;;;;;;70.67;57.00;;;;;;;;4974431;28;45779;-83
2022/01/14 08:33:36;;;;;;;;;61.00;51.00;;;;;;;;4991974;28;45388;-83
2022/01/14 08:36:02;;;;;;;;;64.00;52.00;;;;;;;;4991892;28;45512;-83
2022/01/14 08:38:27;;;;;;;;;62.75;51.75;;;;;;;;4973488;28;45423;-83
2022/01/14 08:40:53;;;;;;;;;66.33;54.33;;;;;;;;4992789;28;45550;-82
2022/01/14 08:43:19;;;;;;;;;65.00;53.75;;;;;;;;4973465;28;45600;-82
2022/01/14 08:45:44;;;;;;;;;62.50;51.25;;;;;;;;4973846;28;47165;-83
2022/01/14 08:48:10;;;;;;;;;66.00;51.00;;;;;;;;4974044;28;45759;-82
2022/01/14 08:50:36;;;;;;;;;67.00;56.00;;;;;;;;4973608;28;45414;-82
2022/01/14 08:53:05;;;;;;;;;69.75;57.50;;;;;;;;4973953;28;45461;-82
2022/01/14 08:55:31;;;;;;;;;74.25;54.50;;;;;;;;4991451;28;45720;-82
2022/01/14 08:57:57;;;;;;;;;62.00;51.33;;;;;;;;4991425;28;45487;-83
2022/01/14 09:00:23;;;;;;;;;66.50;54.75;;;;;;;;4973844;28;45444;-83
2022/01/14 09:02:48;;;;;;;;;69.50;54.50;;;;;;;;4991868;28;45447;-82
2022/01/14 09:05:13;;;;;;;;;69.33;55.33;;;;;;;;4991015;28;45570;-82
2022/01/14 09:07:39;;;;;;;;;71.00;56.25;;;;;;;;4990839;28;45652;-83
2022/01/14 09:10:05;;;;;;;;;73.00;55.25;;;;;;;;4991997;28;45420;-83
2022/01/14 09:12:30;;;;;;;;;68.75;55.00;;;;;;;;4991173;28;45567;-82
2022/01/14 09:14:56;;;;;;;;;72.33;59.00;;;;;;;;4991750;28;46688;-82
2022/01/14 09:17:21;;;;;;;;;70.33;58.00;;;;;;;;4990058;28;45312;-82
2022/01/14 09:19:46;;;;;;;;;72.25;59.50;;;;;;;;4973291;28;45712;-83
2022/01/14 09:22:17;;;;;;;;;67.67;56.00;;;;;;;;4973035;28;46042;-82
2022/01/14 09:24:43;;;;;;;;;62.25;52.00;;;;;;;;4991061;28;45508;-83
2022/01/14 09:27:08;;;;;;;;;72.75;57.25;;;;;;;;4991325;28;45698;-82
2022/01/14 09:29:34;;;;;;;;;67.25;52.50;;;;;;;;4991031;28;45920;-82
2022/01/14 09:31:59;;;;;;;;;64.67;52.67;;;;;;;;4973543;28;45668;-83
2022/01/14 09:34:24;;;;;;;;;63.67;53.00;;;;;;;;4990589;28;46301;-83
2022/01/14 09:36:49;;;;;;;;;65.00;52.67;;;;;;;;4990876;28;45391;-83
2022/01/14 09:39:14;;;;;;;;;67.67;55.33;;;;;;;;4972810;28;45389;-82
2022/01/14 09:41:40;;;;;;;;;61.33;51.67;;;;;;;;4972792;28;45536;-83
2022/01/14 09:44:05;;;;;;;;;63.00;51.33;;;;;;;;4973283;28;48263;-82
2022/01/14 09:46:30;;;;;;;;;62.00;47.75;;;;;;;;4990453;28;45414;-82
2022/01/14 09:48:56;;;;;;;;;51.67;44.00;;;;;;;;4990640;28;45459;-83
2022/01/14 09:51:21;;;;;;;;;61.75;50.75;;;;;;;;4972842;28;45582;-81
2022/01/14 09:53:46;;;;;;;;;58.33;48.00;;;;;;;;4972664;28;48060;-83
2022/01/14 09:56:16;;;;;;;;;56.00;47.00;;;;;;;;4989988;28;45392;-83
2022/01/14 09:58:46;;;;;;;;;49.00;43.25;;;;;;;;4972857;28;45677;-83
2022/01/14 10:01:15;;;;;;;;;57.00;46.75;;;;;;;;4990462;28;45487;-83
2022/01/14 10:03:48;;;;;;;;;58.50;46.25;;;;;;;;4989861;28;45425;-83
2022/01/14 10:06:32;;;;;;;;;56.75;46.75;;;;;;;;4990524;28;45451;-83
2022/01/14 10:09:04;;;;;;;;;57.00;47.00;;;;;;;;4972706;28;45458;-83
2022/01/14 10:11:29;;;;;;;;;60.50;50.25;;;;;;;;4989997;28;45900;-83
2022/01/14 10:14:03;;;;;;;;;65.67;51.33;;;;;;;;4990589;28;46677;-83
2022/01/14 10:16:28;;;;;;;;;58.25;46.75;;;;;;;;4972458;28;45849;-81
2022/01/14 10:18:53;;;;;;;;;58.00;46.67;;;;;;;;4972559;28;45453;-83
2022/01/14 10:21:18;;;;;;;;;61.33;49.00;;;;;;;;4990011;28;45423;-83
2022/01/14 10:23:45;;;;;;;;;63.33;49.67;;;;;;;;4971802;28;46272;-83
2022/01/14 10:26:12;;;;;;;;;60.25;49.75;;;;;;;;4989908;28;46199;-83
2022/01/14 10:28:37;;;;;;;;;62.50;51.25;;;;;;;;4989956;28;45491;-83
2022/01/14 10:31:03;;;;;;;;;61.00;49.00;;;;;;;;4972597;28;45349;-83
2022/01/14 10:33:29;;;;;;;;;67.00;51.25;;;;;;;;4989641;28;46553;-83
2022/01/14 10:35:54;;;;;;;;;67.00;52.75;;;;;;;;4972786;28;45541;-83
2022/01/14 10:38:21;;;;;;;;;62.25;52.00;;;;;;;;4989457;28;45459;-82
2022/01/14 10:40:49;;;;;;;;;67.75;53.25;;;;;;;;4971776;28;45593;-83
2022/01/14 10:43:16;;;;;;;;;68.00;53.00;;;;;;;;4989887;28;45553;-83
2022/01/14 10:45:43;;;;;;;;;62.50;52.00;;;;;;;;4972244;28;45581;-83
2022/01/14 10:48:16;;;;;;;;;63.50;51.25;;;;;;;;4989906;28;45405;-82
2022/01/14 10:50:45;;;;;;;;;64.50;53.00;;;;;;;;4989896;28;45502;-83
2022/01/14 10:53:14;;;;;;;;;63.50;50.00;;;;;;;;4989494;28;46207;-83
2022/01/14 10:55:50;;;;;;;;;64.50;52.75;;;;;;;;4971723;28;45705;-83
2022/01/14 10:58:35;;;;;;;;;68.00;53.25;;;;;;;;4989841;28;45522;-83
2022/01/14 11:01:03;;;;;;;;;67.50;56.50;;;;;;;;4989743;28;45491;-83
2022/01/14 11:03:39;;;;;;;;;63.00;51.25;;;;;;;;4988906;28;45736;-83
2022/01/14 11:06:16;;;;;;;;;64.00;51.25;;;;;;;;4989992;28;45520;-83
2022/01/14 11:08:41;;;;;;;;;62.50;51.00;;;;;;;;4989675;28;45501;-83
2022/01/14 11:11:07;;;;;;;;;64.67;54.00;;;;;;;;4989521;28;45336;-83
2022/01/14 11:13:32;;;;;;;;;61.25;50.50;;;;;;;;4989413;28;46418;-83
2022/01/14 11:15:57;;;;;;;;;64.00;53.25;;;;;;;;4972359;28;45701;-82
2022/01/14 11:18:24;;;;;;;;;64.00;51.00;;;;;;;;4989159;28;45341;-83
2022/01/14 11:23:33;;;;;;;;;64.50;51.50;;;;;;;;4988382;28;45952;-83
2022/01/14 11:26:02;;;;;;;;;65.00;53.67;;;;;;;;4989767;28;45549;-83
2022/01/14 11:28:33;;;;;;;;;64.75;51.50;;;;;;;;4989361;28;45732;-83
2022/01/14 11:30:58;;;;;;;;;69.00;54.00;;;;;;;;4989433;28;45467;-82
2022/01/14 11:33:37;;;;;;;;;63.00;52.33;;;;;;;;4988932;28;45681;-83
2022/01/14 11:36:04;;;;;;;;;68.25;50.75;;;;;;;;4989182;28;45787;-83
2022/01/14 11:38:33;;;;;;;;;64.25;51.75;;;;;;;;4988871;28;45454;-83
2022/01/14 11:40:58;;;;;;;;;69.00;51.25;;;;;;;;4990329;28;45505;-83
2022/01/14 11:43:50;;;;;;;;;63.67;52.00;;;;;;;;4974555;28;47472;-82
2022/01/14 11:46:30;;;;;;;;;57.25;45.00;;;;;;;;4990156;28;45380;-83
2022/01/14 11:48:56;;;;;;;;;57.25;46.00;;;;;;;;4975046;28;45385;-83
2022/01/14 11:51:21;;;;;;;;;62.00;50.33;;;;;;;;4992306;28;45666;-82
2022/01/14 11:53:51;;;;;;;;;64.67;52.00;;;;;;;;4974268;28;48762;-83
2022/01/14 11:56:32;;;;;;;;;60.75;50.00;;;;;;;;4973772;28;45555;-83
2022/01/14 11:59:16;;;;;;;;;60.75;48.50;;;;;;;;4975339;28;45385;-83
2022/01/14 12:01:41;;;;;;;;;58.75;44.75;;;;;;;;4974215;28;45378;-82
2022/01/14 12:04:06;;;;;;;;;58.00;46.00;;;;;;;;4992792;28;45770;-83
2022/01/14 12:06:59;;;;;;;;;61.00;47.33;;;;;;;;4991759;28;45681;-83
2022/01/14 12:09:24;;;;;;;;;56.75;44.75;;;;;;;;4972026;28;45420;-83
2022/01/14 12:12:08;;;;;;;;;53.00;44.67;;;;;;;;4992622;28;45380;-83
2022/01/14 12:14:37;;;;;;;;;57.00;45.00;;;;;;;;4991976;28;45913;-83
2022/01/14 12:17:11;;;;;;;;;58.25;46.50;;;;;;;;4974301;28;45749;-82
2022/01/14 12:19:38;;;;;;;;;53.50;43.25;;;;;;;;4992195;28;45498;-83
2022/01/14 12:22:03;;;;;;;;;54.00;43.25;;;;;;;;4974466;28;45404;-82
2022/01/14 12:24:30;;;;;;;;;49.75;42.75;;;;;;;;4991282;28;45514;-83
2022/01/14 12:27:08;;;;;;;;;59.50;45.00;;;;;;;;4974581;28;45801;-83
2022/01/14 12:29:35;;;;;;;;;51.75;44.50;;;;;;;;4974528;28;45951;-82
2022/01/14 12:32:15;;;;;;;;;54.75;43.75;;;;;;;;4991672;28;45771;-83
2022/01/14 12:34:55;;;;;;;;;58.00;48.75;;;;;;;;4992078;28;46431;-83
2022/01/14 12:37:34;;;;;;;;;57.00;46.50;;;;;;;;4991183;28;45470;-83
2022/01/14 12:40:03;;;;;;;;;58.25;48.50;;;;;;;;4973965;28;45513;-83
2022/01/14 12:42:28;;;;;;;;;58.75;47.00;;;;;;;;4991751;28;45531;-83
2022/01/14 12:44:54;;;;;;;;;57.00;45.00;;;;;;;;4974651;28;48129;-83
2022/01/14 12:47:27;;;;;;;;;61.75;49.25;;;;;;;;4973239;28;45481;-83
2022/01/14 12:49:52;;;;;;;;;62.50;51.00;;;;;;;;4992247;28;45501;-83
2022/01/14 12:52:24;;;;;;;;;63.25;50.00;;;;;;;;4972174;28;45770;-83
2022/01/14 12:54:50;;;;;;;;;70.25;53.75;;;;;;;;4991164;28;45572;-83
2022/01/14 12:57:16;;;;;;;;;59.33;46.33;;;;;;;;4991498;28;45723;-83
2022/01/14 12:59:43;;;;;;;;;59.25;49.00;;;;;;;;4991708;28;45558;-83
2022/01/14 13:02:14;;;;;;;;;60.25;48.75;;;;;;;;4973574;28;45564;-83
2022/01/14 13:04:39;;;;;;;;;58.25;47.50;;;;;;;;4991334;28;46361;-83
2022/01/14 13:07:04;;;;;;;;;55.33;46.67;;;;;;;;4973564;28;45542;-83
2022/01/14 13:09:35;;;;;;;;;60.33;49.00;;;;;;;;4973140;28;45509;-83
2022/01/14 13:12:01;;;;;;;;;58.75;47.50;;;;;;;;4973982;28;45502;-83
2022/01/14 13:14:28;;;;;;;;;66.75;49.75;;;;;;;;4991162;28;46510;-83
2022/01/14 13:16:53;;;;;;;;;61.75;49.50;;;;;;;;4991021;28;45343;-83
2022/01/14 13:19:39;;;;;;;;;57.00;46.50;;;;;;;;4990877;28;45675;-83
2022/01/14 13:22:09;;;;;;;;;58.75;49.50;;;;;;;;4991482;28;45562;-83
2022/01/14 13:24:35;;;;;;;;;53.00;45.25;;;;;;;;4990513;28;46285;-83
2022/01/14 13:27:12;;;;;;;;;61.00;49.75;;;;;;;;4991366;28;45787;-83
2022/01/14 13:29:39;;;;;;;;;58.00;44.75;;;;;;;;4991409;28;45747;-83
2022/01/14 13:32:05;;;;;;;;;59.00;47.50;;;;;;;;4990657;28;45539;-82
2022/01/14 13:34:31;;;;;;;;;54.50;44.75;;;;;;;;4990933;28;46555;-83
2022/01/14 13:36:56;;;;;;;;;56.00;44.25;;;;;;;;4990953;28;45470;-83
2022/01/14 13:39:22;;;;;;;;;54.00;44.25;;;;;;;;4989945;28;45622;-83
2022/01/14 13:41:47;;;;;;;;;55.00;45.33;;;;;;;;4991321;28;45575;-83
2022/01/14 13:44:16;;;;;;;;;56.00;46.25;;;;;;;;4973136;28;47898;-81
2022/01/14 13:46:50;;;;;;;;;57.75;44.75;;;;;;;;4972661;28;45817;-83
2022/01/14 13:49:20;;;;;;;;;57.50;47.75;;;;;;;;4973048;28;45522;-81
2022/01/14 13:51:47;;;;;;;;;55.50;45.75;;;;;;;;4972991;28;45523;-82
2022/01/14 13:54:15;;;;;;;;;53.00;43.25;;;;;;;;4972096;28;48305;-81
2022/01/14 13:56:41;;;;;;;;;55.75;46.25;;;;;;;;4990650;28;45382;-81
2022/01/14 13:59:06;;;;;;;;;53.67;45.00;;;;;;;;4973111;28;45566;-81
2022/01/14 14:01:31;;;;;;;;;53.33;44.33;;;;;;;;4972010;28;45532;-81
2022/01/14 14:04:05;;;;;;;;;53.25;44.00;;;;;;;;4972735;28;47524;-81
2022/01/14 14:06:36;;;;;;;;;56.00;45.75;;;;;;;;4990043;28;45514;-81
2022/01/14 14:09:08;;;;;;;;;53.25;45.75;;;;;;;;4990600;28;45715;-81
2022/01/14 14:16:49;;;;;;;;;59.25;49.00;;;;;;;;4990297;28;45650;-83
2022/01/14 14:19:15;;;;;;;;;54.50;46.00;;;;;;;;4990672;28;45633;-83
2022/01/14 14:21:44;;;;;;;;;53.75;45.00;;;;;;;;4990209;28;45323;-83
2022/01/14 14:24:10;;;;;;;;;51.50;43.50;;;;;;;;4989900;28;46123;-83
2022/01/14 14:26:35;;;;;;;;;54.75;45.00;;;;;;;;4972595;28;45758;-83
2022/01/14 14:29:19;;;;;;;;;55.00;44.33;;;;;;;;4973150;28;45513;-83
2022/01/14 14:31:45;;;;;;;;;54.00;45.00;;;;;;;;4989750;28;45416;-83
2022/01/14 14:34:10;;;;;;;;;55.00;45.67;;;;;;;;4972576;28;47983;-83
2022/01/14 14:36:36;;;;;;;;;54.67;45.00;;;;;;;;4989733;28;45507;-83
2022/01/14 14:39:02;;;;;;;;;53.00;42.50;;;;;;;;4972165;28;45563;-83
2022/01/14 14:41:28;;;;;;;;;53.75;44.25;;;;;;;;4990027;28;45419;-82
2022/01/14 14:43:53;;;;;;;;;54.00;45.67;;;;;;;;4972622;28;47641;-83
2022/01/14 14:46:18;;;;;;;;;57.33;46.67;;;;;;;;4989815;28;45529;-82